createdAt,value
2022-11-04T00:02:16.816Z,96416.00
2022-11-04T00:04:45.052Z,96418.00
2022-11-04T00:07:28.478Z,96415.00
2022-11-04T00:09:56.652Z,96437.00
2022-11-04T00:12:26.483Z,96437.00
2022-11-04T00:15:15.122Z,96436.00
2022-11-04T00:17:42.314Z,96439.00
2022-11-04T00:20:29.081Z,96432.00
2022-11-04T00:23:16.101Z,96436.00
2022-11-04T00:26:02.018Z,96441.00
2022-11-04T00:28:45.201Z,96455.00
2022-11-04T00:31:31.282Z,96443.00
2022-11-04T00:34:00.564Z,96456.00
2022-11-04T00:36:28.839Z,96455.00
2022-11-04T00:38:58.903Z,96461.00
2022-11-04T00:41:27.548Z,96466.00
2022-11-04T00:43:57.939Z,96458.00
2022-11-04T00:46:26.752Z,96464.00
2022-11-04T00:48:55.029Z,96464.00
2022-11-04T00:51:23.643Z,96462.00
2022-11-04T00:53:52.328Z,96453.00
2022-11-04T00:56:21.860Z,96448.00
2022-11-04T00:58:50.971Z,96437.00
2022-11-04T01:01:20.995Z,96427.00
2022-11-04T01:03:52.340Z,96427.00
2022-11-04T01:06:22.871Z,96430.00
2022-11-04T01:08:56.597Z,96432.00
2022-11-04T01:11:28.090Z,96424.00
2022-11-04T01:13:57.302Z,96439.00
2022-11-04T01:18:56.578Z,96433.00
2022-11-04T01:21:24.995Z,96435.00
2022-11-04T01:23:53.266Z,96434.00
2022-11-04T01:26:24.128Z,96443.00
2022-11-04T01:28:56.622Z,96460.00
2022-11-04T01:31:28.287Z,96469.00
2022-11-04T01:33:57.208Z,96485.00
2022-11-04T01:36:26.819Z,96473.00
2022-11-04T01:38:57.316Z,96473.00
2022-11-04T01:41:28.770Z,96486.00
2022-11-04T01:44:01.326Z,96490.00
2022-11-04T01:46:38.240Z,96494.00
2022-11-04T01:49:24.539Z,96506.00
2022-11-04T01:51:57.776Z,96499.00
2022-11-04T01:54:26.693Z,96507.00
2022-11-04T01:56:56.039Z,96506.00
2022-11-04T01:59:31.370Z,96503.00
2022-11-04T02:01:59.713Z,96504.00
2022-11-04T02:04:29.965Z,96508.00
2022-11-04T02:07:01.146Z,96512.00
2022-11-04T02:09:32.355Z,96534.00
2022-11-04T02:12:18.192Z,96540.00
2022-11-04T02:14:50.020Z,96554.00
2022-11-04T02:17:40.781Z,96554.00
2022-11-04T02:20:35.328Z,96563.00
2022-11-04T02:23:52.332Z,96550.00
2022-11-04T02:26:52.988Z,96562.00
2022-11-04T02:29:45.361Z,96566.00
2022-11-04T02:32:22.781Z,96558.00
2022-11-04T02:35:03.252Z,96543.00
2022-11-04T02:37:46.715Z,96555.00
2022-11-04T02:40:28.373Z,96542.00
2022-11-04T02:43:03.148Z,96544.00
2022-11-04T02:45:41.604Z,96537.00
2022-11-04T02:48:20.649Z,96536.00
2022-11-04T02:50:55.415Z,96532.00
2022-11-04T02:53:33.242Z,96533.00
2022-11-04T02:56:05.202Z,96510.00
2022-11-04T02:58:41.614Z,96499.00
2022-11-04T03:01:17.496Z,96506.00
2022-11-04T03:03:50.640Z,96511.00
2022-11-04T03:06:25.454Z,96521.00
2022-11-04T03:08:56.164Z,96510.00
2022-11-04T03:11:27.969Z,96524.00
2022-11-04T03:14:00.991Z,96526.00
2022-11-04T03:16:39.337Z,96545.00
2022-11-04T03:19:16.163Z,96531.00
2022-11-04T03:21:55.598Z,96535.00
2022-11-04T03:24:23.835Z,96538.00
2022-11-04T03:27:01.912Z,96542.00
2022-11-04T03:29:36.297Z,96549.00
2022-11-04T03:32:18.812Z,96542.00
2022-11-04T03:34:47.220Z,96539.00
2022-11-04T03:37:15.695Z,96543.00
2022-11-04T03:39:44.047Z,96543.00
2022-11-04T03:42:21.153Z,96547.00
2022-11-04T03:44:51.954Z,96544.00
2022-11-04T03:47:24.509Z,96531.00
2022-11-04T03:49:58.573Z,96529.00
2022-11-04T03:52:26.809Z,96537.00
2022-11-04T03:54:55.188Z,96541.00
2022-11-04T03:57:44.246Z,96540.00
2022-11-04T04:00:17.050Z,96533.00
2022-11-04T04:03:03.709Z,96531.00
2022-11-04T04:05:35.977Z,96540.00
2022-11-04T04:08:20.725Z,96559.00
2022-11-04T04:11:06.679Z,96548.00
2022-11-04T04:13:43.566Z,96560.00
2022-11-04T04:16:23.259Z,96555.00
2022-11-04T04:18:58.984Z,96581.00
2022-11-04T04:21:34.305Z,96559.00
2022-11-04T04:24:25.538Z,96553.00
2022-11-04T04:27:14.060Z,96565.00
2022-11-04T04:29:44.893Z,96553.00
2022-11-04T04:32:14.892Z,96545.00
2022-11-04T04:34:45.439Z,96546.00
2022-11-04T04:37:21.509Z,96543.00
2022-11-04T04:40:13.642Z,96543.00
2022-11-04T04:42:59.289Z,96529.00
2022-11-04T04:45:34.143Z,96524.00
2022-11-04T04:48:02.403Z,96505.00
2022-11-04T04:50:37.866Z,96509.00
2022-11-04T04:53:06.430Z,96502.00
2022-11-04T04:55:40.502Z,96511.00
2022-11-04T04:58:10.503Z,96505.00
2022-11-04T05:00:38.701Z,96505.00
2022-11-04T05:03:07.361Z,96520.00
2022-11-04T05:05:36.998Z,96526.00
2022-11-04T05:08:09.395Z,96505.00
2022-11-04T05:10:37.648Z,96485.00
2022-11-04T05:13:23.176Z,96493.00
2022-11-04T05:15:51.295Z,96504.00
2022-11-04T05:18:20.034Z,96489.00
2022-11-04T05:20:49.519Z,96472.00
2022-11-04T05:23:17.591Z,96474.00
2022-11-04T05:25:45.700Z,96478.00
2022-11-04T05:28:14.224Z,96469.00
2022-11-04T05:30:42.362Z,96474.00
2022-11-04T05:33:10.874Z,96466.00
2022-11-04T05:35:39.315Z,96494.00
2022-11-04T05:38:08.861Z,96498.00
2022-11-04T05:40:37.514Z,96516.00
2022-11-04T05:43:06.260Z,96537.00
2022-11-04T05:45:34.795Z,96530.00
2022-11-04T05:48:05.598Z,96529.00
2022-11-04T05:50:34.650Z,96509.00
2022-11-04T05:53:02.958Z,96493.00
2022-11-04T05:55:32.380Z,96499.00
2022-11-04T05:58:00.619Z,96508.00
2022-11-04T06:00:29.733Z,96521.00
2022-11-04T06:02:58.222Z,96552.00
2022-11-04T06:05:27.160Z,96541.00
2022-11-04T06:07:55.970Z,96547.00
2022-11-04T06:10:24.589Z,96562.00
2022-11-04T06:12:54.051Z,96553.00
2022-11-04T06:15:22.173Z,96579.00
2022-11-04T06:17:50.291Z,96579.00
2022-11-04T06:20:18.637Z,96588.00
2022-11-04T06:22:46.752Z,96586.00
2022-11-04T06:25:14.875Z,96590.00
2022-11-04T06:27:43.017Z,96603.00
2022-11-04T06:30:13.797Z,96598.00
2022-11-04T06:32:41.992Z,96615.00
2022-11-04T06:35:10.551Z,96607.00
2022-11-04T06:37:38.857Z,96612.00
2022-11-04T06:40:09.085Z,96614.00
2022-11-04T06:42:37.250Z,96606.00
2022-11-04T06:45:06.317Z,96601.00
2022-11-04T06:47:35.772Z,96599.00
2022-11-04T06:50:04.296Z,96593.00
2022-11-04T06:52:32.416Z,96589.00
2022-11-04T06:55:00.510Z,96578.00
2022-11-04T06:57:28.603Z,96585.00
2022-11-04T06:59:56.914Z,96588.00
2022-11-04T07:02:25.119Z,96608.00
2022-11-04T07:04:54.882Z,96590.00
2022-11-04T07:07:23.081Z,96587.00
2022-11-04T07:09:51.254Z,96572.00
2022-11-04T07:12:19.362Z,96580.00
2022-11-04T07:14:47.455Z,96556.00
2022-11-04T07:17:15.594Z,96560.00
2022-11-04T07:19:43.774Z,96555.00
2022-11-04T07:22:13.387Z,96547.00
2022-11-04T07:24:41.503Z,96550.00
2022-11-04T07:27:09.664Z,96554.00
2022-11-04T07:29:38.200Z,96561.00
2022-11-04T07:32:07.222Z,96564.00
2022-11-04T07:34:35.319Z,96567.00
2022-11-04T07:37:03.610Z,96568.00
2022-11-04T07:39:33.071Z,96563.00
2022-11-04T07:42:01.178Z,96571.00
2022-11-04T07:44:29.286Z,96571.00
2022-11-04T07:46:58.094Z,96580.00
2022-11-04T07:49:26.759Z,96562.00
2022-11-04T07:51:54.859Z,96563.00
2022-11-04T07:54:23.167Z,96561.00
2022-11-04T07:56:52.625Z,96553.00
2022-11-04T07:59:20.723Z,96559.00
2022-11-04T08:01:48.999Z,96563.00
2022-11-04T08:04:17.827Z,96567.00
2022-11-04T08:06:46.010Z,96581.00
2022-11-04T08:09:14.332Z,96600.00
2022-11-04T08:11:42.543Z,96593.00
2022-11-04T08:14:12.160Z,96609.00
2022-11-04T08:16:40.492Z,96601.00
2022-11-04T08:19:08.779Z,96606.00
2022-11-04T08:21:36.928Z,96621.00
2022-11-04T08:24:05.988Z,96637.00
2022-11-04T08:26:34.366Z,96637.00
2022-11-04T08:29:03.505Z,96650.00
2022-11-04T08:31:33.745Z,96639.00
2022-11-04T08:34:02.812Z,96648.00
2022-11-04T08:36:34.320Z,96663.00
2022-11-04T08:39:10.001Z,96661.00
2022-11-04T08:41:40.985Z,96659.00
2022-11-04T08:44:09.886Z,96658.00
2022-11-04T08:46:42.266Z,96667.00
2022-11-04T08:49:14.959Z,96659.00
2022-11-04T08:51:49.581Z,96656.00
2022-11-04T08:54:17.878Z,96646.00
2022-11-04T08:56:45.992Z,96656.00
2022-11-04T08:59:15.038Z,96651.00
2022-11-04T09:01:45.048Z,96659.00
2022-11-04T09:04:14.319Z,96663.00
2022-11-04T09:06:46.121Z,96671.00
2022-11-04T09:09:16.999Z,96669.00
2022-11-04T09:11:46.876Z,96668.00
2022-11-04T09:14:17.674Z,96655.00
2022-11-04T09:16:47.179Z,96647.00
2022-11-04T09:19:15.287Z,96638.00
2022-11-04T09:21:45.285Z,96622.00
2022-11-04T09:24:13.912Z,96627.00
2022-11-04T09:26:42.092Z,96615.00
2022-11-04T09:29:10.209Z,96612.00
2022-11-04T09:31:39.078Z,96613.00
2022-11-04T09:34:10.477Z,96609.00
2022-11-04T09:36:39.147Z,96617.00
2022-11-04T09:39:07.309Z,96616.00
2022-11-04T09:42:11.016Z,96614.00
2022-11-04T09:45:19.521Z,96610.00
2022-11-04T09:47:43.177Z,96609.00
2022-11-04T09:50:23.842Z,96615.00
2022-11-04T09:52:59.746Z,96619.00
2022-11-04T09:55:35.974Z,96604.00
2022-11-04T09:58:04.699Z,96623.00
2022-11-04T10:00:37.897Z,96615.00
2022-11-04T10:03:24.833Z,96608.00
2022-11-04T10:06:19.663Z,96600.00
2022-11-04T10:09:07.670Z,96615.00
2022-11-04T10:11:47.592Z,96607.00
2022-11-04T10:14:41.592Z,96586.00
2022-11-04T10:17:27.652Z,96591.00
2022-11-04T10:20:15.555Z,96587.00
2022-11-04T10:22:59.159Z,96578.00
2022-11-04T10:25:39.322Z,96575.00
2022-11-04T10:28:14.467Z,96576.00
2022-11-04T10:30:45.865Z,96584.00
2022-11-04T10:33:27.750Z,96584.00
2022-11-04T10:36:01.929Z,96578.00
2022-11-04T10:38:39.114Z,96588.00
2022-11-04T10:41:31.698Z,96586.00
2022-11-04T10:44:06.559Z,96591.00
2022-11-04T10:46:53.062Z,96597.00
2022-11-04T10:50:00.056Z,96603.00
2022-11-04T10:52:35.641Z,96608.00
2022-11-04T10:55:15.763Z,96602.00
2022-11-04T10:57:44.360Z,96606.00
2022-11-04T11:00:36.510Z,96608.00
2022-11-04T11:03:24.628Z,96601.00
2022-11-04T11:05:54.019Z,96595.00
2022-11-04T11:08:32.072Z,96596.00
2022-11-04T11:11:00.889Z,96593.00
2022-11-04T11:13:36.551Z,96577.00
2022-11-04T11:16:13.805Z,96576.00
2022-11-04T11:18:42.716Z,96579.00
2022-11-04T11:21:15.959Z,96574.00
2022-11-04T11:23:47.279Z,96555.00
2022-11-04T11:26:20.232Z,96550.00
2022-11-04T11:28:59.138Z,96545.00
2022-11-04T11:31:39.163Z,96564.00
2022-11-04T11:34:17.259Z,96566.00
2022-11-04T11:36:48.050Z,96560.00
2022-11-04T11:39:21.983Z,96560.00
2022-11-04T11:41:57.257Z,96561.00
2022-11-04T11:44:31.755Z,96575.00
2022-11-04T11:47:04.333Z,96563.00
2022-11-04T11:49:35.810Z,96565.00
2022-11-04T11:52:33.730Z,96553.00
2022-11-04T11:55:12.555Z,96547.00
2022-11-04T12:00:59.123Z,96540.00
2022-11-04T12:09:47.421Z,96565.00
2022-11-04T12:12:44.620Z,96573.00
2022-11-04T12:15:32.663Z,96565.00
2022-11-04T12:18:35.052Z,96568.00
2022-11-04T12:21:14.011Z,96574.00
2022-11-04T12:23:54.950Z,96574.00
2022-11-04T12:26:36.339Z,96578.00
2022-11-04T12:29:36.890Z,96580.00
2022-11-04T12:32:18.612Z,96581.00
2022-11-04T12:35:10.957Z,96576.00
2022-11-04T12:37:59.783Z,96577.00
2022-11-04T12:40:34.276Z,96582.00
2022-11-04T12:43:22.919Z,96593.00
2022-11-04T12:46:05.029Z,96586.00
2022-11-04T12:48:57.782Z,96579.00
2022-11-04T12:51:41.751Z,96589.00
2022-11-04T12:54:40.082Z,96599.00
2022-11-04T12:57:21.712Z,96607.00
2022-11-04T13:00:10.929Z,96593.00
2022-11-04T13:02:47.344Z,96596.00
2022-11-04T13:05:41.004Z,96600.00
2022-11-04T13:08:22.528Z,96600.00
2022-11-04T13:11:00.332Z,96596.00
2022-11-04T13:13:35.353Z,96590.00
2022-11-04T13:16:08.630Z,96581.00
2022-11-04T13:18:41.802Z,96594.00
2022-11-04T13:21:16.581Z,96587.00
2022-11-04T13:23:53.216Z,96582.00
2022-11-04T13:26:23.057Z,96580.00
2022-11-04T13:29:08.427Z,96576.00
2022-11-04T13:31:51.024Z,96576.00
2022-11-04T13:34:35.426Z,96585.00
2022-11-04T13:37:19.026Z,96570.00
2022-11-04T13:39:53.033Z,96583.00
2022-11-04T13:43:29.777Z,96571.00
2022-11-04T13:45:58.809Z,96590.00
2022-11-04T13:48:31.625Z,96582.00
2022-11-04T13:51:03.760Z,96600.00
2022-11-04T13:53:48.542Z,96608.00
2022-11-04T13:56:34.845Z,96611.00
2022-11-04T13:59:19.824Z,96609.00
2022-11-04T14:01:48.517Z,96601.00
2022-11-04T14:04:30.099Z,96615.00
2022-11-04T14:07:01.683Z,96605.00
2022-11-04T14:09:59.525Z,96619.00
2022-11-04T14:12:36.815Z,96610.00
2022-11-04T14:15:17.812Z,96624.00
2022-11-04T14:18:02.632Z,96622.00
2022-11-04T14:20:37.629Z,96616.00
2022-11-04T14:23:08.785Z,96632.00
2022-11-04T14:25:44.064Z,96640.00
2022-11-04T14:28:29.470Z,96641.00
2022-11-04T14:31:01.984Z,96651.00
2022-11-04T14:33:50.340Z,96639.00
2022-11-04T14:36:37.954Z,96641.00
2022-11-04T14:39:23.394Z,96653.00
2022-11-04T14:41:56.786Z,96658.00
2022-11-04T14:44:33.793Z,96639.00
2022-11-04T14:47:18.383Z,96651.00
2022-11-04T14:49:50.239Z,96653.00
2022-11-04T14:52:26.921Z,96652.00
2022-11-04T14:55:03.129Z,96644.00
2022-11-04T14:57:38.110Z,96653.00
2022-11-04T15:00:39.928Z,96664.00
2022-11-04T15:04:09.319Z,96663.00
2022-11-04T15:06:34.787Z,96649.00
2022-11-04T15:09:23.059Z,96663.00
2022-11-04T15:12:05.604Z,96648.00
2022-11-04T15:14:33.747Z,96658.00
2022-11-04T15:17:02.816Z,96653.00
2022-11-04T15:19:36.047Z,96663.00
2022-11-04T15:22:07.363Z,96658.00
2022-11-04T15:24:36.740Z,96665.00
2022-11-04T15:27:07.660Z,96656.00
2022-11-04T15:29:36.010Z,96658.00
2022-11-04T15:32:06.353Z,96655.00
2022-11-04T15:34:37.525Z,96656.00
2022-11-04T15:37:07.661Z,96662.00
2022-11-04T15:39:43.413Z,96670.00
2022-11-04T15:42:36.842Z,96678.00
2022-11-04T15:45:32.620Z,96671.00
2022-11-04T15:48:28.337Z,96679.00
2022-11-04T15:51:22.638Z,96680.00
2022-11-04T15:53:55.429Z,96688.00
2022-11-04T15:56:28.576Z,96682.00
2022-11-04T15:58:59.575Z,96680.00
2022-11-04T16:01:29.145Z,96687.00
2022-11-04T16:04:01.905Z,96676.00
2022-11-04T16:06:37.688Z,96685.00
2022-11-04T16:09:20.765Z,96688.00
2022-11-04T16:12:13.630Z,96697.00
2022-11-04T16:14:50.470Z,96686.00
2022-11-04T16:17:19.196Z,96688.00
2022-11-04T16:19:54.442Z,96685.00
2022-11-04T16:22:30.383Z,96689.00
2022-11-04T16:25:01.335Z,96687.00
2022-11-04T16:27:33.119Z,96688.00
2022-11-04T16:30:21.536Z,96673.00
2022-11-04T16:32:52.835Z,96687.00
2022-11-04T16:35:25.231Z,96686.00
2022-11-04T16:37:57.061Z,96697.00
2022-11-04T16:40:26.161Z,96689.00
2022-11-04T16:42:55.182Z,96678.00
2022-11-04T16:45:28.812Z,96690.00
2022-11-04T16:47:57.853Z,96698.00
2022-11-04T16:50:26.431Z,96689.00
2022-11-04T16:52:56.215Z,96699.00
2022-11-04T16:55:25.404Z,96695.00
2022-11-04T16:58:00.047Z,96696.00
2022-11-04T17:00:32.788Z,96701.00
2022-11-04T17:03:01.674Z,96702.00
2022-11-04T17:05:29.976Z,96724.00
2022-11-04T17:08:04.797Z,96724.00
2022-11-04T17:10:36.198Z,96734.00
2022-11-04T17:13:04.361Z,96735.00
2022-11-04T17:15:33.440Z,96735.00
2022-11-04T17:18:01.579Z,96748.00
2022-11-04T17:20:31.796Z,96745.00
2022-11-04T17:23:02.132Z,96749.00
2022-11-04T17:25:31.359Z,96761.00
2022-11-04T17:27:59.564Z,96758.00
2022-11-04T17:30:27.713Z,96758.00
2022-11-04T17:32:55.877Z,96758.00
2022-11-04T17:35:24.099Z,96769.00
2022-11-04T17:37:53.825Z,96778.00
2022-11-04T17:40:24.631Z,96774.00
2022-11-04T17:43:12.634Z,96778.00
2022-11-04T17:45:41.623Z,96770.00
2022-11-04T17:48:11.285Z,96782.00
2022-11-04T17:50:42.100Z,96769.00
2022-11-04T17:53:10.911Z,96778.00
2022-11-04T17:55:41.529Z,96783.00
2022-11-04T17:58:09.952Z,96774.00
2022-11-04T18:00:38.405Z,96779.00
2022-11-04T18:03:08.846Z,96788.00
2022-11-04T18:05:37.828Z,96778.00
2022-11-04T18:08:06.148Z,96790.00
2022-11-04T18:10:34.417Z,96780.00
2022-11-04T18:13:02.921Z,96791.00
2022-11-04T18:15:31.310Z,96788.00
2022-11-04T18:17:59.720Z,96789.00
2022-11-04T18:20:27.937Z,96785.00
2022-11-04T18:22:56.202Z,96784.00
2022-11-04T18:25:24.781Z,96807.00
2022-11-04T18:27:53.007Z,96808.00
2022-11-04T18:30:23.064Z,96803.00
2022-11-04T18:32:51.694Z,96804.00
2022-11-04T18:35:19.954Z,96805.00
2022-11-04T18:37:48.081Z,96812.00
2022-11-04T18:40:16.897Z,96808.00
2022-11-04T18:42:45.599Z,96801.00
2022-11-04T18:45:13.861Z,96807.00
2022-11-04T18:47:43.346Z,96812.00
2022-11-04T18:50:11.732Z,96827.00
2022-11-04T18:52:40.369Z,96802.00
2022-11-04T18:55:10.593Z,96814.00
2022-11-04T18:57:38.813Z,96824.00
2022-11-04T19:00:12.921Z,96826.00
2022-11-04T19:02:45.499Z,96825.00
2022-11-04T19:05:13.995Z,96833.00
2022-11-04T19:07:43.578Z,96828.00
2022-11-04T19:10:12.619Z,96835.00
2022-11-04T19:12:59.179Z,96840.00
2022-11-04T19:15:28.147Z,96850.00
2022-11-04T19:17:57.607Z,96844.00
2022-11-04T19:20:25.791Z,96846.00
2022-11-04T19:22:54.076Z,96856.00
2022-11-04T19:25:22.269Z,96857.00
2022-11-04T19:28:11.534Z,96857.00
2022-11-04T19:30:39.023Z,96867.00
2022-11-04T19:33:08.582Z,96876.00
2022-11-04T19:35:36.808Z,96870.00
2022-11-04T19:38:06.999Z,96883.00
2022-11-04T19:40:35.643Z,96873.00
2022-11-04T19:43:11.877Z,96893.00
2022-11-04T19:45:42.827Z,96885.00
2022-11-04T19:48:13.597Z,96896.00
2022-11-04T19:50:45.697Z,96891.00
2022-11-04T19:53:14.301Z,96900.00
2022-11-04T19:55:50.516Z,96906.00
2022-11-04T19:58:19.326Z,96906.00
2022-11-04T20:00:48.182Z,96911.00
2022-11-04T20:03:17.736Z,96906.00
2022-11-04T20:05:46.413Z,96921.00
2022-11-04T20:08:14.529Z,96916.00
2022-11-04T20:10:44.373Z,96918.00
2022-11-04T20:13:35.623Z,96930.00
2022-11-04T20:16:13.649Z,96944.00
2022-11-04T20:18:43.383Z,96943.00
2022-11-04T20:21:12.179Z,96946.00
2022-11-04T20:23:40.901Z,96950.00
2022-11-04T20:26:19.198Z,96943.00
2022-11-04T20:28:49.035Z,96949.00
2022-11-04T20:31:20.183Z,96955.00
2022-11-04T20:33:51.489Z,96949.00
2022-11-04T20:36:23.494Z,96951.00
2022-11-04T20:38:56.778Z,96971.00
2022-11-04T20:41:24.925Z,96964.00
2022-11-04T20:43:54.955Z,96957.00
2022-11-04T20:46:26.649Z,96968.00
2022-11-04T20:48:57.657Z,96975.00
2022-11-04T20:51:29.595Z,96970.00
2022-11-04T20:54:01.112Z,96977.00
2022-11-04T20:56:32.004Z,96970.00
2022-11-04T20:59:01.717Z,96977.00
2022-11-04T21:01:34.017Z,96990.00
2022-11-04T21:04:06.377Z,96980.00
2022-11-04T21:06:38.204Z,96986.00
2022-11-04T21:09:08.914Z,96990.00
2022-11-04T21:11:39.722Z,96996.00
2022-11-04T21:14:09.516Z,97009.00
2022-11-04T21:16:38.249Z,96996.00
2022-11-04T21:19:07.998Z,97007.00
2022-11-04T21:21:36.425Z,97010.00
2022-11-04T21:24:07.225Z,97019.00
2022-11-04T21:26:36.859Z,97015.00
2022-11-04T21:29:09.079Z,97030.00
2022-11-04T21:31:39.439Z,97022.00
2022-11-04T21:34:09.802Z,97021.00
2022-11-04T21:36:40.473Z,97035.00
2022-11-04T21:39:13.186Z,97030.00
2022-11-04T21:41:42.593Z,97047.00
2022-11-04T21:44:17.245Z,97044.00
2022-11-04T21:46:52.528Z,97044.00
2022-11-04T21:49:22.977Z,97045.00
2022-11-04T21:51:52.236Z,97038.00
2022-11-04T21:54:22.155Z,97040.00
2022-11-04T21:56:52.389Z,97050.00
2022-11-04T21:59:22.848Z,97052.00
2022-11-04T22:01:51.503Z,97061.00
2022-11-04T22:04:21.325Z,97050.00
2022-11-04T22:06:49.409Z,97052.00
2022-11-04T22:09:17.576Z,97049.00
2022-11-04T22:11:45.715Z,97045.00
2022-11-04T22:14:14.129Z,97051.00
2022-11-04T22:16:42.601Z,97045.00
2022-11-04T22:19:15.290Z,97046.00
2022-11-04T22:21:46.888Z,97060.00
2022-11-04T22:24:18.410Z,97036.00
2022-11-04T22:26:47.566Z,97048.00
2022-11-04T22:29:15.766Z,97045.00
2022-11-04T22:31:44.667Z,97050.00
2022-11-04T22:34:12.855Z,97060.00
2022-11-04T22:36:41.029Z,97071.00
2022-11-04T22:39:16.489Z,97057.00
2022-11-04T22:41:46.180Z,97060.00
2022-11-04T22:44:14.872Z,97065.00
2022-11-04T22:46:43.481Z,97059.00
2022-11-04T22:49:11.586Z,97043.00
2022-11-04T22:51:39.697Z,97056.00
2022-11-04T22:54:08.847Z,97053.00
2022-11-04T22:56:38.630Z,97050.00
2022-11-04T22:59:07.821Z,97063.00
2022-11-04T23:01:36.155Z,97051.00
2022-11-04T23:04:04.955Z,97061.00
2022-11-04T23:06:33.378Z,97065.00
2022-11-04T23:09:01.522Z,97057.00
2022-11-04T23:11:48.901Z,97057.00
2022-11-04T23:14:50.251Z,97069.00
2022-11-04T23:17:39.598Z,97057.00
2022-11-04T23:20:12.068Z,97061.00
2022-11-04T23:22:57.912Z,97051.00
2022-11-04T23:25:27.019Z,97056.00
2022-11-04T23:28:14.507Z,97060.00
2022-11-04T23:30:47.846Z,97066.00
2022-11-04T23:33:16.412Z,97058.00
2022-11-04T23:36:05.175Z,97066.00
2022-11-04T23:38:35.205Z,97063.00
2022-11-04T23:41:24.802Z,97068.00
2022-11-04T23:43:53.572Z,97074.00
2022-11-04T23:46:43.420Z,97069.00
2022-11-04T23:49:30.681Z,97068.00
2022-11-04T23:52:16.316Z,97085.00
2022-11-04T23:55:01.975Z,97089.00
2022-11-04T23:57:47.432Z,97091.00
